Time;durP1;ratioP1;P1;durP2;ratioP2;P2;SDS_P1;SDS_P2;PMS_P1;PMS_P2;Temp;Humidity;BMP_temperature;BMP_pressure;BME280_temperature;BME280_humidity;BME280_pressure;Samples;Min_cycle;Max_cycle;Signal;HPM_P1;HPM_P2
2023/06/26 00:02:18;;;;;;;6.78;5.03;;;22.50;83.60;;;;;;5019120;28;20402;-87
2023/06/26 00:04:44;;;;;;;7.95;4.75;;;22.40;83.20;;;;;;5021201;28;20079;-87
2023/06/26 00:07:10;;;;;;;7.75;4.68;;;22.40;83.70;;;;;;5018928;28;20227;-86
2023/06/26 00:09:36;;;;;;;6.68;4.55;;;22.50;83.70;;;;;;5019566;28;20033;-84
2023/06/26 00:12:01;;;;;;;6.10;4.38;;;22.40;84.00;;;;;;5018972;28;20033;-83
2023/06/26 00:14:27;;;;;;;8.55;4.93;;;22.50;84.10;;;;;;5019272;28;20059;-84
2023/06/26 00:16:52;;;;;;;7.32;4.38;;;22.40;84.60;;;;;;5018583;28;20411;-83
2023/06/26 00:19:18;;;;;;;6.55;4.20;;;22.30;85.30;;;;;;5019247;28;20125;-85
2023/06/26 00:21:46;;;;;;;7.65;4.57;;;22.20;86.20;;;;;;5018831;28;20113;-83
2023/06/26 00:24:12;;;;;;;7.13;4.80;;;22.10;87.10;;;;;;5036103;28;20025;-84
2023/06/26 00:26:38;;;;;;;10.25;4.95;;;22.00;87.40;;;;;;5019049;28;20025;-84
2023/06/26 00:29:04;;;;;;;9.90;5.10;;;21.90;87.50;;;;;;5035983;28;20103;-83
2023/06/26 00:31:30;;;;;;;6.65;4.80;;;21.90;87.40;;;;;;5036379;28;20029;-84
2023/06/26 00:33:55;;;;;;;7.10;4.70;;;21.80;87.80;;;;;;5018674;28;20022;-84
2023/06/26 00:36:22;;;;;;;6.80;4.40;;;21.80;88.20;;;;;;5036342;28;20026;-84
2023/06/26 00:38:49;;;;;;;8.15;5.05;;;21.90;87.90;;;;;;5018941;28;20120;-84
2023/06/26 00:41:15;;;;;;;6.90;4.88;;;21.90;88.80;;;;;;5035783;28;20024;-83
2023/06/26 00:43:41;;;;;;;6.63;4.20;;;21.90;88.40;;;;;;5036109;28;20025;-83
2023/06/26 00:46:10;;;;;;;8.73;4.53;;;21.80;88.50;;;;;;5017839;28;20033;-83
2023/06/26 00:48:37;;;;;;;7.10;4.50;;;21.70;89.80;;;;;;5018394;28;20036;-83
2023/06/26 00:51:02;;;;;;;6.70;4.80;;;21.60;89.90;;;;;;5035514;28;20474;-84
2023/06/26 00:53:28;;;;;;;6.28;4.88;;;21.50;90.40;;;;;;5018647;28;20112;-84
2023/06/26 00:55:54;;;;;;;7.25;4.65;;;21.40;90.70;;;;;;5018154;28;20056;-84
2023/06/26 00:58:23;;;;;;;8.65;4.80;;;21.30;91.10;;;;;;5018408;28;20108;-83
2023/06/26 01:00:49;;;;;;;7.35;4.75;;;21.20;91.50;;;;;;5017889;28;20045;-84
2023/06/26 01:03:15;;;;;;;7.38;4.57;;;21.20;92.00;;;;;;5017763;28;20422;-83
2023/06/26 01:05:41;;;;;;;7.57;4.95;;;21.30;92.60;;;;;;5019608;28;20029;-87
2023/06/26 01:08:08;;;;;;;7.43;4.68;;;21.20;92.80;;;;;;5018237;28;20121;-84
2023/06/26 01:10:34;;;;;;;8.98;4.95;;;21.10;93.10;;;;;;5018333;28;20026;-84
2023/06/26 01:13:00;;;;;;;8.32;4.55;;;21.00;93.60;;;;;;5018015;28;20048;-85
2023/06/26 01:15:25;;;;;;;8.02;4.80;;;21.00;94.00;;;;;;5017856;28;20030;-84
2023/06/26 01:17:51;;;;;;;7.43;4.88;;;20.90;94.40;;;;;;5017789;28;20065;-84
2023/06/26 01:20:18;;;;;;;8.43;4.85;;;20.80;94.90;;;;;;5017739;28;20032;-84
2023/06/26 01:23:15;;;;;;;6.85;4.57;;;20.70;95.30;;;;;;5017768;28;20103;-84
2023/06/26 01:25:59;;;;;;;6.63;4.88;;;20.70;95.80;;;;;;5017745;28;20402;-84
2023/06/26 01:28:26;;;;;;;8.25;5.10;;;20.60;96.30;;;;;;5017932;28;20536;-84
2023/06/26 01:30:53;;;;;;;9.63;4.97;;;20.50;96.60;;;;;;5017812;28;20505;-84
2023/06/26 01:33:19;;;;;;;6.35;4.70;;;20.50;97.00;;;;;;5035503;28;20040;-87
2023/06/26 01:35:45;;;;;;;7.55;5.05;;;20.50;97.10;;;;;;5017903;28;20029;-87
2023/06/26 01:38:18;;;;;;;9.50;4.82;;;20.50;97.40;;;;;;5034652;28;20022;-86
2023/06/26 01:40:44;;;;;;;8.18;4.75;;;20.50;97.70;;;;;;5017652;28;20032;-86
2023/06/26 01:43:27;;;;;;;6.72;4.78;;;20.40;98.00;;;;;;5017160;28;20033;-86
2023/06/26 01:45:58;;;;;;;7.30;4.70;;;20.40;98.20;;;;;;5018059;28;20032;-86
2023/06/26 01:48:30;;;;;;;7.10;4.73;;;20.30;98.40;;;;;;5017992;28;20022;-87
2023/06/26 01:50:59;;;;;;;13.27;5.20;;;20.30;98.60;;;;;;5034561;28;20037;-84
2023/06/26 01:53:30;;;;;;;8.20;5.55;;;20.20;98.90;;;;;;5017695;28;20026;-84
2023/06/26 01:56:06;;;;;;;7.40;5.32;;;20.20;99.10;;;;;;5016739;28;20022;-85
2023/06/26 01:58:32;;;;;;;6.82;4.57;;;20.20;99.20;;;;;;5017395;28;20057;-84
2023/06/26 02:00:59;;;;;;;6.78;4.70;;;20.20;99.40;;;;;;5016952;28;20557;-84
2023/06/26 02:03:24;;;;;;;8.45;5.80;;;20.30;99.20;;;;;;5017294;28;20044;-84
2023/06/26 02:05:51;;;;;;;8.00;4.95;;;20.30;99.50;;;;;;5017398;28;20026;-84
2023/06/26 02:08:16;;;;;;;7.97;4.90;;;20.20;99.70;;;;;;5016895;28;20025;-84
2023/06/26 02:10:42;;;;;;;9.13;4.43;;;20.10;99.90;;;;;;5017375;28;20022;-84
2023/06/26 02:13:07;;;;;;;8.10;5.07;;;20.20;99.80;;;;;;5017380;28;20025;-84
2023/06/26 02:15:33;;;;;;;8.00;5.13;;;20.30;98.70;;;;;;5017228;28;20462;-84
2023/06/26 02:17:59;;;;;;;7.05;4.80;;;20.50;98.40;;;;;;5016785;28;20025;-85
2023/06/26 02:20:24;;;;;;;8.18;4.72;;;20.50;98.60;;;;;;5016771;28;20034;-84
2023/06/26 02:22:50;;;;;;;7.88;4.82;;;20.60;97.90;;;;;;5016905;28;20049;-84
2023/06/26 02:25:16;;;;;;;8.50;5.25;;;20.70;97.60;;;;;;5034021;28;20136;-84
2023/06/26 02:27:42;;;;;;;9.60;5.20;;;20.70;97.50;;;;;;5016833;28;20034;-84
2023/06/26 02:30:09;;;;;;;7.40;5.30;;;20.70;97.70;;;;;;5016543;28;20533;-83
2023/06/26 02:32:34;;;;;;;7.43;5.00;;;20.70;97.90;;;;;;5016931;28;20030;-84
2023/06/26 02:35:00;;;;;;;7.20;4.75;;;20.70;98.00;;;;;;5016831;28;20032;-83
2023/06/26 02:37:26;;;;;;;8.82;4.82;;;20.60;98.20;;;;;;5016656;28;20083;-83
2023/06/26 02:39:51;;;;;;;9.38;5.30;;;20.60;97.80;;;;;;5016834;28;20025;-84
2023/06/26 02:42:17;;;;;;;7.95;5.20;;;20.50;98.30;;;;;;5015931;28;20098;-84
2023/06/26 02:44:42;;;;;;;10.25;5.32;;;20.30;98.50;;;;;;5017079;28;20063;-84
2023/06/26 02:47:08;;;;;;;6.82;4.80;;;20.40;98.40;;;;;;5016324;28;20030;-84
2023/06/26 02:49:33;;;;;;;7.78;4.70;;;20.30;98.50;;;;;;5034810;28;20034;-84
2023/06/26 02:51:59;;;;;;;10.50;5.45;;;20.30;98.00;;;;;;5016154;28;20045;-83
2023/06/26 02:54:24;;;;;;;6.45;4.53;;;20.40;98.10;;;;;;5017750;28;20032;-84
2023/06/26 02:56:50;;;;;;;7.93;5.30;;;20.50;98.00;;;;;;5017498;28;20026;-86
2023/06/26 02:59:15;;;;;;;9.60;4.88;;;20.60;97.90;;;;;;5016303;28;20418;-86
2023/06/26 03:01:41;;;;;;;6.70;4.45;;;20.60;97.60;;;;;;5016680;28;20034;-86
2023/06/26 03:04:07;;;;;;;7.63;5.20;;;20.60;97.70;;;;;;5016267;28;20076;-85
2023/06/26 03:06:32;;;;;;;7.35;4.47;;;20.60;97.60;;;;;;5016672;28;20029;-86
2023/06/26 03:08:58;;;;;;;8.63;5.40;;;20.50;97.60;;;;;;5018248;28;20029;-86
2023/06/26 03:11:23;;;;;;;9.75;5.40;;;20.30;98.60;;;;;;5038013;28;20036;-86
2023/06/26 03:13:49;;;;;;;8.85;5.13;;;20.20;99.10;;;;;;5020860;28;20428;-86
2023/06/26 03:16:14;;;;;;;7.70;4.90;;;20.20;99.30;;;;;;5021086;28;20108;-85
2023/06/26 03:18:40;;;;;;;8.90;5.18;;;20.10;99.50;;;;;;5020727;28;20029;-86
2023/06/26 03:21:05;;;;;;;7.93;5.30;;;20.10;99.70;;;;;;5020144;28;20064;-86
2023/06/26 03:23:31;;;;;;;8.88;5.40;;;20.00;99.70;;;;;;5022539;28;20029;-85
2023/06/26 03:25:56;;;;;;;7.15;4.78;;;20.00;99.90;;;;;;5039227;28;20025;-85
2023/06/26 03:28:22;;;;;;;9.63;5.70;;;20.00;99.90;;;;;;5037008;28;20087;-85
2023/06/26 03:30:48;;;;;;;6.60;4.85;;;19.90;99.80;;;;;;5037497;28;20033;-86
2023/06/26 03:33:13;;;;;;;8.15;5.25;;;19.90;99.70;;;;;;5019806;28;20034;-86
2023/06/26 03:35:39;;;;;;;8.43;5.30;;;19.90;99.80;;;;;;5020216;28;20022;-86
2023/06/26 03:38:05;;;;;;;7.70;5.07;;;19.90;99.90;;;;;;5037189;28;20466;-85
2023/06/26 03:40:31;;;;;;;8.85;4.80;;;19.90;99.90;;;;;;5020048;28;20061;-85
2023/06/26 03:42:56;;;;;;;8.73;5.65;;;19.90;99.90;;;;;;5019947;28;20065;-85
2023/06/26 03:45:22;;;;;;;7.22;4.82;;;19.80;99.90;;;;;;5020045;28;20116;-84
2023/06/26 03:47:49;;;;;;;8.52;5.50;;;19.80;99.90;;;;;;5020725;28;20029;-84
2023/06/26 03:50:18;;;;;;;8.98;5.05;;;19.80;99.90;;;;;;5018989;28;20065;-84
2023/06/26 03:52:45;;;;;;;8.43;4.95;;;19.90;99.90;;;;;;5020782;28;20390;-84
2023/06/26 03:55:11;;;;;;;7.85;4.82;;;19.90;99.90;;;;;;5020880;28;20039;-84
2023/06/26 03:57:36;;;;;;;7.13;4.63;;;20.00;99.90;;;;;;5021830;28;20116;-84
2023/06/26 04:00:08;;;;;;;7.57;5.03;;;19.90;99.90;;;;;;5016477;28;20060;-83
2023/06/26 04:02:34;;;;;;;9.20;5.30;;;20.00;99.90;;;;;;5016650;28;20034;-84
2023/06/26 04:05:00;;;;;;;7.00;4.68;;;20.00;99.90;;;;;;5018602;28;20029;-85
2023/06/26 04:07:25;;;;;;;7.07;4.82;;;20.00;99.90;;;;;;5016625;28;20088;-85
2023/06/26 04:09:51;;;;;;;8.68;5.38;;;20.00;99.90;;;;;;5016407;28;20030;-87
2023/06/26 04:12:17;;;;;;;10.90;5.28;;;20.00;99.90;;;;;;5015765;28;20029;-88
2023/06/26 04:14:42;;;;;;;9.85;5.40;;;20.00;99.90;;;;;;5016275;28;20054;-87
2023/06/26 04:17:08;;;;;;;7.85;4.70;;;19.90;99.90;;;;;;5018848;28;20037;-86
2023/06/26 04:19:35;;;;;;;7.07;4.40;;;20.00;99.90;;;;;;5015780;28;20029;-87
2023/06/26 04:22:01;;;;;;;8.23;5.15;;;20.10;99.90;;;;;;5015741;28;20144;-87
2023/06/26 04:24:26;;;;;;;8.48;5.28;;;20.20;99.70;;;;;;5016649;28;20182;-87
2023/06/26 04:26:52;;;;;;;8.60;5.32;;;20.30;99.50;;;;;;5019968;28;20026;-86
2023/06/26 04:29:18;;;;;;;8.73;4.97;;;20.40;99.60;;;;;;5022924;28;20038;-87
2023/06/26 04:31:46;;;;;;;10.27;5.75;;;20.50;99.40;;;;;;5029686;28;20034;-87
2023/06/26 04:34:13;;;;;;;9.98;5.32;;;20.50;99.60;;;;;;5034846;28;20022;-87
2023/06/26 04:36:39;;;;;;;8.20;5.32;;;20.60;99.80;;;;;;5033422;28;20079;-84
2023/06/26 04:39:06;;;;;;;7.85;5.05;;;20.60;99.90;;;;;;5034912;28;20025;-84
2023/06/26 04:41:31;;;;;;;9.38;5.30;;;20.60;99.90;;;;;;5022964;28;20084;-83
2023/06/26 04:43:57;;;;;;;8.15;5.78;;;20.60;99.90;;;;;;5016055;28;20030;-83
2023/06/26 04:46:22;;;;;;;7.97;4.93;;;20.70;99.90;;;;;;5025382;28;20036;-84
2023/06/26 04:48:48;;;;;;;8.40;5.55;;;20.70;99.90;;;;;;5035133;28;20086;-84
2023/06/26 04:51:13;;;;;;;7.75;5.00;;;20.80;99.80;;;;;;5034699;28;20041;-83
2023/06/26 04:53:39;;;;;;;7.68;5.40;;;20.80;99.70;;;;;;5035071;28;20112;-84
2023/06/26 04:56:05;;;;;;;8.88;5.80;;;20.80;99.60;;;;;;5034957;28;20463;-83
2023/06/26 04:58:30;;;;;;;8.10;5.20;;;20.90;99.70;;;;;;5036370;28;20051;-83
2023/06/26 05:00:56;;;;;;;9.70;5.40;;;20.90;99.70;;;;;;5038149;28;20031;-84
2023/06/26 05:03:22;;;;;;;7.70;5.47;;;20.90;99.60;;;;;;5037805;28;20102;-84
2023/06/26 05:05:48;;;;;;;9.73;5.78;;;20.90;99.60;;;;;;5038563;28;20068;-85
2023/06/26 05:08:18;;;;;;;10.75;5.53;;;21.00;99.60;;;;;;5037203;28;20021;-83
2023/06/26 05:10:44;;;;;;;9.70;5.85;;;21.00;99.60;;;;;;5032677;28;20478;-85
2023/06/26 05:13:10;;;;;;;8.55;5.32;;;21.10;99.50;;;;;;5017555;28;20025;-86
2023/06/26 05:15:36;;;;;;;10.25;5.88;;;21.10;99.30;;;;;;5018376;28;20076;-86
2023/06/26 05:18:01;;;;;;;8.40;5.68;;;21.20;99.20;;;;;;5018206;28;20031;-86
2023/06/26 05:20:27;;;;;;;9.35;5.38;;;21.20;99.20;;;;;;5020673;28;20032;-85
2023/06/26 05:22:53;;;;;;;8.57;5.47;;;21.20;99.20;;;;;;5055520;28;20529;-86
2023/06/26 05:25:21;;;;;;;13.65;5.22;;;21.20;99.10;;;;;;5054871;28;20036;-86
2023/06/26 05:27:47;;;;;;;10.80;5.57;;;21.20;99.10;;;;;;5048238;28;20052;-85
2023/06/26 05:30:15;;;;;;;9.63;5.82;;;21.30;99.20;;;;;;5018468;28;20037;-87
2023/06/26 05:32:40;;;;;;;10.95;5.68;;;21.40;99.00;;;;;;5033812;28;20033;-90
2023/06/26 05:35:07;;;;;;;14.35;5.50;;;21.40;98.80;;;;;;5023331;28;20024;-90
2023/06/26 05:37:33;;;;;;;11.27;5.78;;;21.40;98.80;;;;;;5030312;28;20071;-91
2023/06/26 05:39:59;;;;;;;8.63;5.43;;;21.50;98.80;;;;;;5025651;28;20021;-90
2023/06/26 05:42:27;;;;;;;7.90;5.32;;;21.50;98.70;;;;;;5036789;28;20103;-90
2023/06/26 05:44:53;;;;;;;9.38;5.18;;;21.50;98.70;;;;;;5045797;28;20048;-88
2023/06/26 05:47:19;;;;;;;8.05;5.00;;;21.60;98.60;;;;;;5026259;28;20663;-90
2023/06/26 05:49:44;;;;;;;8.93;5.07;;;21.60;98.60;;;;;;5053929;28;20060;-87
2023/06/26 05:52:11;;;;;;;8.73;5.63;;;21.60;98.50;;;;;;5040917;28;20037;-87
2023/06/26 05:54:37;;;;;;;8.10;5.43;;;21.70;98.50;;;;;;5054415;28;20021;-87
2023/06/26 05:57:04;;;;;;;8.23;5.05;;;21.70;98.70;;;;;;5045596;28;20075;-88
2023/06/26 05:59:31;;;;;;;9.07;5.28;;;21.70;98.80;;;;;;5036915;28;20075;-86
2023/06/26 06:01:57;;;;;;;7.65;5.32;;;21.80;98.50;;;;;;5037984;28;20521;-88
2023/06/26 06:04:22;;;;;;;9.35;5.40;;;21.80;98.50;;;;;;5041494;28;20025;-87
2023/06/26 06:06:48;;;;;;;9.57;5.25;;;21.80;98.70;;;;;;5056872;28;20028;-86
2023/06/26 06:09:14;;;;;;;16.77;5.45;;;21.90;98.60;;;;;;5055163;28;20210;-85
2023/06/26 06:11:39;;;;;;;7.95;5.22;;;21.90;98.60;;;;;;5055074;28;20029;-85
2023/06/26 06:14:05;;;;;;;13.95;5.28;;;22.00;98.70;;;;;;5038937;28;20020;-85
2023/06/26 06:16:30;;;;;;;8.90;5.18;;;22.00;98.60;;;;;;5051563;28;20143;-84
2023/06/26 06:18:56;;;;;;;8.80;5.28;;;22.00;98.60;;;;;;5028723;28;20039;-84
2023/06/26 06:21:22;;;;;;;7.15;5.05;;;22.10;98.40;;;;;;5054012;28;20032;-84
2023/06/26 06:23:47;;;;;;;7.07;4.65;;;22.20;98.60;;;;;;5037149;28;20052;-85
2023/06/26 06:26:13;;;;;;;8.70;5.00;;;22.20;98.50;;;;;;5053117;28;20024;-88
2023/06/26 06:28:39;;;;;;;6.80;4.90;;;22.30;98.60;;;;;;5042196;28;20466;-88
2023/06/26 06:31:05;;;;;;;8.45;5.13;;;22.30;98.20;;;;;;5043118;28;20063;-89
2023/06/26 06:33:30;;;;;;;10.32;5.20;;;22.40;98.40;;;;;;5048859;28;20033;-82
2023/06/26 06:35:56;;;;;;;7.68;4.75;;;22.40;98.30;;;;;;5036150;28;20041;-84
2023/06/26 06:38:22;;;;;;;8.73;4.55;;;22.50;98.30;;;;;;5053265;28;20025;-87
2023/06/26 06:40:47;;;;;;;8.30;4.97;;;22.60;98.10;;;;;;5047500;28;20091;-83
2023/06/26 06:43:13;;;;;;;8.77;4.57;;;22.70;98.10;;;;;;5037973;28;20128;-84
2023/06/26 06:45:38;;;;;;;8.13;4.93;;;22.70;98.00;;;;;;5035999;28;20449;-84
2023/06/26 06:48:05;;;;;;;9.75;4.78;;;22.80;97.30;;;;;;5025567;28;20029;-86
2023/06/26 06:50:31;;;;;;;7.15;4.57;;;22.90;97.20;;;;;;5023392;28;20047;-82
2023/06/26 06:52:56;;;;;;;7.93;4.80;;;23.00;97.00;;;;;;5044009;28;20128;-84
2023/06/26 06:55:22;;;;;;;9.98;4.82;;;23.10;96.80;;;;;;5039423;28;20025;-84
2023/06/26 06:57:48;;;;;;;8.45;5.05;;;23.10;96.30;;;;;;5051387;28;20112;-86
2023/06/26 07:00:14;;;;;;;7.85;4.72;;;23.20;96.30;;;;;;5038058;28;20044;-85
2023/06/26 07:02:43;;;;;;;7.57;4.30;;;23.30;95.90;;;;;;5045982;28;20057;-85
2023/06/26 07:05:09;;;;;;;6.00;4.18;;;23.40;95.40;;;;;;5046253;28;20036;-86
2023/06/26 07:07:36;;;;;;;6.07;4.07;;;23.50;95.30;;;;;;5052609;28;20029;-88
2023/06/26 07:10:11;;;;;;;8.43;4.30;;;23.50;95.20;;;;;;5053369;28;20021;-86
2023/06/26 07:12:37;;;;;;;6.25;4.50;;;23.60;95.30;;;;;;5041492;28;20025;-86
2023/06/26 07:15:04;;;;;;;7.65;4.45;;;23.80;94.70;;;;;;5053521;28;20088;-86
2023/06/26 07:17:34;;;;;;;8.35;4.78;;;23.80;94.40;;;;;;5027671;28;20463;-82
2023/06/26 07:20:01;;;;;;;6.90;4.20;;;23.90;94.10;;;;;;5036184;28;20035;-82
2023/06/26 07:22:26;;;;;;;5.38;3.95;;;24.00;94.30;;;;;;5046994;28;20037;-82
2023/06/26 07:24:52;;;;;;;5.45;4.07;;;24.10;93.60;;;;;;5035217;28;20448;-82
2023/06/26 07:27:18;;;;;;;7.95;4.20;;;24.10;93.40;;;;;;5046680;28;20021;-83
2023/06/26 07:29:44;;;;;;;7.38;3.83;;;24.10;93.30;;;;;;5036481;28;20147;-81
2023/06/26 07:32:10;;;;;;;7.25;4.30;;;24.30;93.40;;;;;;5052143;28;20052;-85
2023/06/26 07:34:36;;;;;;;5.43;3.97;;;24.30;93.40;;;;;;5052170;28;20056;-84
2023/06/26 07:37:02;;;;;;;9.05;4.05;;;24.40;93.10;;;;;;5046807;28;20105;-84
2023/06/26 07:39:27;;;;;;;9.15;4.80;;;24.50;93.00;;;;;;5048048;28;20375;-83
2023/06/26 07:41:53;;;;;;;6.45;4.00;;;24.50;92.60;;;;;;5052537;28;20037;-84
2023/06/26 07:44:18;;;;;;;7.30;4.03;;;24.60;92.40;;;;;;5033539;28;20029;-81
2023/06/26 07:46:47;;;;;;;8.20;3.65;;;24.60;92.50;;;;;;5031324;28;20029;-81
2023/06/26 07:49:12;;;;;;;6.40;4.40;;;24.70;92.00;;;;;;5046689;28;20018;-80
2023/06/26 07:51:38;;;;;;;6.47;4.30;;;24.70;91.90;;;;;;5045972;28;20037;-83
2023/06/26 07:54:04;;;;;;;6.63;4.22;;;24.70;91.90;;;;;;5050541;28;20025;-86
2023/06/26 07:56:29;;;;;;;6.57;4.15;;;24.80;91.90;;;;;;5051981;28;20389;-83
2023/06/26 07:58:57;;;;;;;10.02;4.25;;;24.80;92.00;;;;;;5054849;28;20129;-82
2023/06/26 08:01:23;;;;;;;5.97;3.78;;;24.90;92.10;;;;;;5049198;28;20049;-83
2023/06/26 08:03:49;;;;;;;5.97;4.00;;;24.90;92.00;;;;;;5033995;28;20206;-82
2023/06/26 08:06:15;;;;;;;5.97;4.32;;;24.90;92.10;;;;;;5022501;28;20093;-85
2023/06/26 08:08:40;;;;;;;5.35;3.95;;;25.00;92.10;;;;;;5045448;28;20110;-84
2023/06/26 08:11:06;;;;;;;6.40;4.60;;;25.00;92.10;;;;;;5029897;28;20033;-80
2023/06/26 08:13:31;;;;;;;7.40;4.00;;;25.10;92.30;;;;;;5029829;28;20043;-82
2023/06/26 08:15:57;;;;;;;5.85;4.65;;;25.20;92.30;;;;;;5042232;28;20033;-80
2023/06/26 08:18:23;;;;;;;8.85;4.70;;;25.30;92.30;;;;;;5039016;28;20047;-80
2023/06/26 08:20:48;;;;;;;6.05;4.53;;;25.40;92.30;;;;;;5046749;28;20033;-82
2023/06/26 08:23:14;;;;;;;7.35;4.50;;;25.40;92.10;;;;;;5037641;28;20057;-86
2023/06/26 08:25:39;;;;;;;5.97;4.05;;;25.50;92.30;;;;;;5037498;28;20025;-86
2023/06/26 08:28:05;;;;;;;6.43;4.10;;;25.60;92.30;;;;;;5044048;28;20033;-84
2023/06/26 08:30:32;;;;;;;6.03;3.92;;;25.60;92.20;;;;;;5048182;28;20036;-84
2023/06/26 08:32:58;;;;;;;9.07;4.00;;;25.50;92.10;;;;;;5037401;28;20491;-85
2023/06/26 08:35:23;;;;;;;6.50;4.40;;;25.50;92.20;;;;;;5026544;28;20029;-84
2023/06/26 08:37:49;;;;;;;11.63;4.55;;;25.50;92.20;;;;;;5052084;28;20488;-85
2023/06/26 08:40:18;;;;;;;8.15;4.18;;;25.50;92.40;;;;;;5025159;28;20378;-85
2023/06/26 08:42:44;;;;;;;7.85;4.57;;;25.50;92.40;;;;;;5039701;28;20033;-83
2023/06/26 08:45:10;;;;;;;7.13;4.43;;;25.50;92.10;;;;;;5035125;28;20120;-83
2023/06/26 08:47:38;;;;;;;6.15;4.10;;;25.60;92.30;;;;;;5035933;28;20185;-84
2023/06/26 08:50:12;;;;;;;4.63;3.70;;;25.60;92.00;;;;;;5054831;28;20017;-82
2023/06/26 08:52:49;;;;;;;6.63;4.55;;;25.70;92.20;;;;;;5046454;28;20103;-83
2023/06/26 08:55:16;;;;;;;9.27;4.55;;;25.80;91.90;;;;;;5041716;28;20063;-82
2023/06/26 08:57:42;;;;;;;6.75;4.25;;;25.90;92.10;;;;;;5046198;28;20454;-83
2023/06/26 09:00:08;;;;;;;5.75;3.83;;;26.00;91.90;;;;;;5045926;28;20163;-85
2023/06/26 09:02:36;;;;;;;6.82;4.10;;;26.20;92.10;;;;;;5054321;28;20044;-86
2023/06/26 09:05:03;;;;;;;8.88;4.60;;;26.40;91.50;;;;;;5034495;28;20048;-83
2023/06/26 09:07:28;;;;;;;6.50;4.20;;;26.40;91.10;;;;;;5054374;28;20024;-85
2023/06/26 09:09:54;;;;;;;7.72;3.97;;;26.50;91.20;;;;;;5044375;28;20452;-83
2023/06/26 09:12:20;;;;;;;8.35;3.85;;;26.50;91.30;;;;;;5039503;28;20033;-80
2023/06/26 09:14:47;;;;;;;5.65;3.95;;;26.70;91.30;;;;;;5042131;28;20198;-78
2023/06/26 09:17:14;;;;;;;8.55;4.35;;;26.70;91.20;;;;;;5040886;28;20071;-83
2023/06/26 09:19:39;;;;;;;7.45;4.25;;;26.70;91.20;;;;;;5044997;28;20124;-81
2023/06/26 09:22:14;;;;;;;7.47;4.13;;;26.70;91.20;;;;;;5045752;28;20124;-85
2023/06/26 09:24:42;;;;;;;6.95;3.78;;;26.70;91.10;;;;;;5045755;28;20060;-81
2023/06/26 09:27:07;;;;;;;9.43;4.35;;;26.80;90.90;;;;;;5045535;28;20025;-81
2023/06/26 09:29:33;;;;;;;6.72;4.00;;;26.70;90.70;;;;;;5042688;28;20120;-83
2023/06/26 09:31:59;;;;;;;7.35;4.20;;;26.60;90.80;;;;;;5036662;28;20528;-84
2023/06/26 09:34:34;;;;;;;5.38;3.78;;;26.50;91.00;;;;;;5049887;28;20052;-83
2023/06/26 09:37:02;;;;;;;9.18;4.15;;;26.50;91.20;;;;;;5046238;28;20051;-82
2023/06/26 09:39:30;;;;;;;5.03;4.05;;;26.50;91.10;;;;;;5043334;28;20063;-81
2023/06/26 09:41:57;;;;;;;6.13;4.10;;;26.50;91.20;;;;;;5026976;28;20105;-81
2023/06/26 09:44:23;;;;;;;7.07;3.67;;;26.40;91.40;;;;;;5035419;28;20021;-84
2023/06/26 09:46:49;;;;;;;5.63;4.13;;;26.40;91.60;;;;;;5038332;28;20030;-82
2023/06/26 09:49:15;;;;;;;5.90;3.63;;;26.40;91.70;;;;;;5049678;28;20485;-79
2023/06/26 09:51:42;;;;;;;8.43;4.00;;;26.40;91.80;;;;;;5026331;28;20102;-79
2023/06/26 09:54:09;;;;;;;6.18;4.28;;;26.40;91.90;;;;;;5053797;28;20028;-86
2023/06/26 09:56:35;;;;;;;7.90;4.03;;;26.30;91.90;;;;;;5040677;28;20120;-84
2023/06/26 09:59:02;;;;;;;6.55;3.80;;;26.30;91.90;;;;;;5041584;28;20069;-85
2023/06/26 10:01:29;;;;;;;8.70;4.00;;;26.40;92.10;;;;;;5045940;28;20025;-86
2023/06/26 10:03:58;;;;;;;6.30;4.20;;;26.40;92.10;;;;;;5041441;28;20454;-87
2023/06/26 10:06:33;;;;;;;6.53;3.92;;;26.50;92.50;;;;;;5053345;28;20021;-83
2023/06/26 10:09:00;;;;;;;6.80;4.30;;;26.50;92.20;;;;;;5040288;28;20112;-85
2023/06/26 10:11:32;;;;;;;5.35;3.80;;;26.60;92.10;;;;;;5023004;28;20024;-80
2023/06/26 10:13:58;;;;;;;7.00;3.80;;;26.60;92.10;;;;;;5023273;28;20175;-82
2023/06/26 10:16:28;;;;;;;7.00;4.32;;;26.70;92.10;;;;;;5031547;28;20029;-82
2023/06/26 10:18:58;;;;;;;4.68;3.70;;;26.70;92.20;;;;;;5052183;28;20029;-82
2023/06/26 10:21:27;;;;;;;7.03;4.33;;;26.80;92.00;;;;;;5051905;28;20488;-81
2023/06/26 10:23:55;;;;;;;8.07;4.20;;;26.80;91.90;;;;;;5053226;28;20459;-82
2023/06/26 10:26:22;;;;;;;5.22;4.20;;;26.90;92.00;;;;;;5034631;28;20028;-80
2023/06/26 10:28:51;;;;;;;4.78;3.70;;;27.00;91.90;;;;;;5034628;28;20107;-81
2023/06/26 10:31:21;;;;;;;7.10;3.88;;;27.00;92.00;;;;;;5028516;28;20025;-83
2023/06/26 10:33:47;;;;;;;6.40;3.75;;;27.10;91.60;;;;;;5025564;28;20061;-81
2023/06/26 10:36:18;;;;;;;5.18;4.25;;;27.20;91.30;;;;;;5046035;28;20116;-85
2023/06/26 10:38:51;;;;;;;4.82;3.85;;;27.30;91.70;;;;;;5053655;28;20017;-87
2023/06/26 10:41:20;;;;;;;7.68;3.72;;;27.40;90.80;;;;;;5052403;28;20028;-84
2023/06/26 10:43:51;;;;;;;5.00;4.00;;;27.40;91.00;;;;;;5033260;28;20035;-85
2023/06/26 10:46:19;;;;;;;5.90;4.00;;;27.60;90.40;;;;;;5042062;28;20029;-81
2023/06/26 10:48:57;;;;;;;6.40;4.22;;;27.60;89.10;;;;;;5053349;28;20388;-81
2023/06/26 10:51:24;;;;;;;6.22;3.70;;;27.70;87.80;;;;;;5035640;28;20458;-84
2023/06/26 10:53:57;;;;;;;5.60;3.90;;;27.80;87.20;;;;;;5035315;28;20119;-84
2023/06/26 10:56:42;;;;;;;8.40;3.95;;;28.00;86.70;;;;;;5044741;28;20056;-84
2023/06/26 10:59:14;;;;;;;5.88;3.67;;;28.30;85.50;;;;;;5030748;28;20049;-84
2023/06/26 11:01:41;;;;;;;7.65;4.50;;;28.40;84.80;;;;;;5043714;28;20021;-84
2023/06/26 11:04:07;;;;;;;7.43;3.63;;;28.50;84.80;;;;;;5052688;28;20013;-85
2023/06/26 11:06:35;;;;;;;4.63;3.72;;;28.60;84.30;;;;;;5051797;28;20025;-85
2023/06/26 11:09:13;;;;;;;4.90;3.40;;;28.60;83.80;;;;;;5052254;28;20088;-92
2023/06/26 11:12:04;;;;;;;4.65;3.35;;;28.60;82.70;;;;;;5052271;28;20025;-83
2023/06/26 11:14:31;;;;;;;8.00;3.72;;;28.70;83.20;;;;;;5039180;28;20420;-89
2023/06/26 11:16:59;;;;;;;8.50;3.60;;;28.90;82.60;;;;;;5047484;28;20038;-89
2023/06/26 11:19:27;;;;;;;5.00;3.50;;;28.90;81.60;;;;;;5035268;28;20025;-89
2023/06/26 11:21:59;;;;;;;5.65;3.60;;;28.80;81.00;;;;;;5041569;28;20041;-86
2023/06/26 11:24:25;;;;;;;5.57;3.35;;;28.60;80.60;;;;;;5044155;28;20071;-84
2023/06/26 11:26:50;;;;;;;4.82;3.50;;;28.50;80.70;;;;;;5043588;28;20033;-85
2023/06/26 11:29:16;;;;;;;5.57;3.20;;;28.30;80.70;;;;;;5043848;28;20029;-86
2023/06/26 11:31:42;;;;;;;4.03;3.03;;;28.40;81.00;;;;;;5051028;28;20103;-86
2023/06/26 11:34:12;;;;;;;6.25;3.40;;;28.40;80.30;;;;;;5043106;28;20033;-90
2023/06/26 11:36:41;;;;;;;5.00;3.35;;;28.40;79.60;;;;;;5033265;28;20036;-84
2023/06/26 11:39:07;;;;;;;4.72;3.20;;;28.40;79.70;;;;;;5056736;28;20025;-84
2023/06/26 11:41:34;;;;;;;5.22;3.50;;;28.40;79.50;;;;;;5056058;28;20029;-85
2023/06/26 11:44:01;;;;;;;5.45;3.17;;;28.40;80.50;;;;;;5028118;28;20090;-89
2023/06/26 11:46:27;;;;;;;6.35;2.88;;;28.40;80.90;;;;;;5026339;28;20033;-82
2023/06/26 11:48:54;;;;;;;6.80;3.33;;;28.40;80.10;;;;;;5036613;28;20033;-83
2023/06/26 11:51:19;;;;;;;5.57;2.92;;;28.50;79.40;;;;;;5052100;28;20071;-82
2023/06/26 11:53:48;;;;;;;4.15;2.95;;;28.50;78.80;;;;;;5054040;28;20086;-85
2023/06/26 11:56:16;;;;;;;7.97;3.05;;;28.40;78.90;;;;;;5055204;28;20032;-82
2023/06/26 11:59:06;;;;;;;4.43;3.22;;;28.50;79.10;;;;;;5055892;28;20032;-82
2023/06/26 12:01:38;;;;;;;5.45;2.95;;;28.50;78.70;;;;;;5018283;28;20030;-81
2023/06/26 12:04:05;;;;;;;7.45;3.00;;;28.60;78.30;;;;;;5023367;28;20116;-81
2023/06/26 12:06:41;;;;;;;4.32;3.05;;;28.60;76.40;;;;;;5054253;28;20040;-80
2023/06/26 12:09:10;;;;;;;5.53;2.97;;;28.60;75.50;;;;;;5029909;28;20024;-81
2023/06/26 12:11:39;;;;;;;4.30;2.83;;;28.70;74.80;;;;;;5030666;28;20026;-81
2023/06/26 12:14:06;;;;;;;4.22;2.47;;;28.70;74.50;;;;;;5027263;28;20037;-82
2023/06/26 12:16:34;;;;;;;4.63;2.58;;;28.70;74.40;;;;;;5055151;28;20071;-91
2023/06/26 12:19:03;;;;;;;4.47;2.55;;;28.70;73.40;;;;;;5055711;28;20092;-81
2023/06/26 12:21:46;;;;;;;14.50;2.75;;;28.70;72.30;;;;;;5054929;28;20086;-83
2023/06/26 12:24:17;;;;;;;4.60;2.60;;;28.60;72.10;;;;;;5033637;28;20468;-87
2023/06/26 12:26:44;;;;;;;3.67;2.35;;;28.60;72.00;;;;;;5055035;28;20481;-86
2023/06/26 12:29:12;;;;;;;2.85;2.08;;;28.60;72.00;;;;;;5055433;28;20025;-83
2023/06/26 12:31:42;;;;;;;4.53;2.30;;;28.70;71.80;;;;;;5045611;28;20095;-83
2023/06/26 12:34:18;;;;;;;4.63;1.93;;;28.70;72.00;;;;;;5023407;28;20496;-83
2023/06/26 12:36:46;;;;;;;3.28;2.50;;;28.80;71.80;;;;;;5047922;28;20254;-84
2023/06/26 12:39:12;;;;;;;6.85;2.28;;;28.90;71.40;;;;;;5036604;28;20024;-84
2023/06/26 12:41:59;;;;;;;8.15;2.58;;;29.10;70.40;;;;;;5054893;28;20053;-81
2023/06/26 12:44:27;;;;;;;3.15;2.08;;;29.10;68.60;;;;;;5047088;28;20014;-88
2023/06/26 12:47:00;;;;;;;4.03;2.15;;;29.10;68.50;;;;;;5049633;28;20522;-83